sensor_id;sensor_type;location;lat;lon;timestamp;temperature;humidity
34873;DHT22;21084;51.098;14.506;2022-09-04T00:00:46;11.50;99.90
34873;DHT22;21084;51.098;14.506;2022-09-04T00:03:29;11.50;99.90
34873;DHT22;21084;51.098;14.506;2022-09-04T00:06:07;11.40;99.90
34873;DHT22;21084;51.098;14.506;2022-09-04T00:08:47;11.40;99.90
34873;DHT22;21084;51.098;14.506;2022-09-04T00:11:27;11.40;99.90
34873;DHT22;21084;51.098;14.506;2022-09-04T00:13:59;11.30;99.90
34873;DHT22;21084;51.098;14.506;2022-09-04T00:16:33;11.30;99.90
34873;DHT22;21084;51.098;14.506;2022-09-04T00:19:06;11.20;99.90
34873;DHT22;21084;51.098;14.506;2022-09-04T00:21:41;11.10;99.90
34873;DHT22;21084;51.098;14.506;2022-09-04T00:24:14;11.10;99.90
34873;DHT22;21084;51.098;14.506;2022-09-04T00:26:49;11.10;99.90
34873;DHT22;21084;51.098;14.506;2022-09-04T00:29:24;11.00;99.90
34873;DHT22;21084;51.098;14.506;2022-09-04T00:32:00;11.00;99.90
34873;DHT22;21084;51.098;14.506;2022-09-04T00:34:45;10.90;99.90
34873;DHT22;21084;51.098;14.506;2022-09-04T00:37:20;10.90;99.90
34873;DHT22;21084;51.098;14.506;2022-09-04T00:39:54;10.80;99.90
34873;DHT22;21084;51.098;14.506;2022-09-04T00:45:39;10.80;99.90
34873;DHT22;21084;51.098;14.506;2022-09-04T00:48:28;10.80;99.90
34873;DHT22;21084;51.098;14.506;2022-09-04T00:51:16;10.70;99.90
34873;DHT22;21084;51.098;14.506;2022-09-04T00:54:00;10.70;99.90
34873;DHT22;21084;51.098;14.506;2022-09-04T00:57:03;10.60;99.90
34873;DHT22;21084;51.098;14.506;2022-09-04T00:59:50;10.60;99.90
34873;DHT22;21084;51.098;14.506;2022-09-04T01:02:29;10.60;99.90
34873;DHT22;21084;51.098;14.506;2022-09-04T01:05:06;10.60;99.90
34873;DHT22;21084;51.098;14.506;2022-09-04T01:07:50;10.60;99.90
34873;DHT22;21084;51.098;14.506;2022-09-04T01:10:29;10.50;99.90
34873;DHT22;21084;51.098;14.506;2022-09-04T01:13:08;10.50;99.90
34873;DHT22;21084;51.098;14.506;2022-09-04T01:15:42;10.40;99.90
34873;DHT22;21084;51.098;14.506;2022-09-04T01:18:15;10.50;99.90
34873;DHT22;21084;51.098;14.506;2022-09-04T01:21:02;10.40;99.90
34873;DHT22;21084;51.098;14.506;2022-09-04T01:26:41;10.30;99.90
34873;DHT22;21084;51.098;14.506;2022-09-04T01:29:20;10.40;99.90
34873;DHT22;21084;51.098;14.506;2022-09-04T01:32:11;10.30;99.90
34873;DHT22;21084;51.098;14.506;2022-09-04T01:34:48;10.20;99.90
34873;DHT22;21084;51.098;14.506;2022-09-04T01:37:28;10.20;99.90
34873;DHT22;21084;51.098;14.506;2022-09-04T01:42:52;10.20;99.90
34873;DHT22;21084;51.098;14.506;2022-09-04T01:45:37;10.20;99.90
34873;DHT22;21084;51.098;14.506;2022-09-04T01:48:10;10.20;99.90
34873;DHT22;21084;51.098;14.506;2022-09-04T01:50:40;10.20;99.90
34873;DHT22;21084;51.098;14.506;2022-09-04T01:53:13;10.10;99.90
34873;DHT22;21084;51.098;14.506;2022-09-04T01:55:50;10.00;99.90
34873;DHT22;21084;51.098;14.506;2022-09-04T01:58:29;10.00;99.90
34873;DHT22;21084;51.098;14.506;2022-09-04T02:01:09;10.00;99.90
34873;DHT22;21084;51.098;14.506;2022-09-04T02:03:46;10.00;99.90
34873;DHT22;21084;51.098;14.506;2022-09-04T02:06:23;10.00;99.90
34873;DHT22;21084;51.098;14.506;2022-09-04T02:09:05;9.90;99.90
34873;DHT22;21084;51.098;14.506;2022-09-04T02:11:44;9.90;99.90
34873;DHT22;21084;51.098;14.506;2022-09-04T02:14:33;9.90;99.90
34873;DHT22;21084;51.098;14.506;2022-09-04T02:17:09;9.90;99.90
34873;DHT22;21084;51.098;14.506;2022-09-04T02:19:51;9.90;99.90
34873;DHT22;21084;51.098;14.506;2022-09-04T02:22:30;9.80;99.90
34873;DHT22;21084;51.098;14.506;2022-09-04T02:25:05;9.80;99.90
34873;DHT22;21084;51.098;14.506;2022-09-04T02:27:41;9.70;99.90
34873;DHT22;21084;51.098;14.506;2022-09-04T02:30:16;9.80;99.90
34873;DHT22;21084;51.098;14.506;2022-09-04T02:32:52;9.80;99.90
34873;DHT22;21084;51.098;14.506;2022-09-04T02:35:29;9.80;99.90
34873;DHT22;21084;51.098;14.506;2022-09-04T02:38:09;9.70;99.90
34873;DHT22;21084;51.098;14.506;2022-09-04T02:40:49;9.70;99.90
34873;DHT22;21084;51.098;14.506;2022-09-04T02:46:12;9.60;99.90
34873;DHT22;21084;51.098;14.506;2022-09-04T02:48:53;9.60;99.90
34873;DHT22;21084;51.098;14.506;2022-09-04T02:51:34;9.50;99.90
34873;DHT22;21084;51.098;14.506;2022-09-04T02:54:10;9.60;99.90
34873;DHT22;21084;51.098;14.506;2022-09-04T02:56:47;9.50;99.90
34873;DHT22;21084;51.098;14.506;2022-09-04T02:59:29;9.50;99.90
34873;DHT22;21084;51.098;14.506;2022-09-04T03:02:02;9.50;99.90
34873;DHT22;21084;51.098;14.506;2022-09-04T03:04:36;9.50;99.90
34873;DHT22;21084;51.098;14.506;2022-09-04T03:07:10;9.50;99.90
34873;DHT22;21084;51.098;14.506;2022-09-04T03:09:44;9.50;99.90
34873;DHT22;21084;51.098;14.506;2022-09-04T03:12:30;9.50;99.90
34873;DHT22;21084;51.098;14.506;2022-09-04T03:15:04;9.50;99.90
34873;DHT22;21084;51.098;14.506;2022-09-04T03:17:43;9.50;99.90
34873;DHT22;21084;51.098;14.506;2022-09-04T03:20:18;9.50;99.90
34873;DHT22;21084;51.098;14.506;2022-09-04T03:22:53;9.50;99.90
34873;DHT22;21084;51.098;14.506;2022-09-04T03:28:45;9.50;99.90
34873;DHT22;21084;51.098;14.506;2022-09-04T03:31:28;9.50;99.90
34873;DHT22;21084;51.098;14.506;2022-09-04T03:34:09;9.40;99.90
34873;DHT22;21084;51.098;14.506;2022-09-04T03:36:51;9.40;99.90
34873;DHT22;21084;51.098;14.506;2022-09-04T03:39:27;9.40;99.90
34873;DHT22;21084;51.098;14.506;2022-09-04T03:42:02;9.40;99.90
34873;DHT22;21084;51.098;14.506;2022-09-04T03:44:44;9.30;99.90
34873;DHT22;21084;51.098;14.506;2022-09-04T03:47:25;9.30;99.90
34873;DHT22;21084;51.098;14.506;2022-09-04T03:50:06;9.30;99.90
34873;DHT22;21084;51.098;14.506;2022-09-04T03:52:46;9.30;99.90
34873;DHT22;21084;51.098;14.506;2022-09-04T03:58:18;9.20;99.90
34873;DHT22;21084;51.098;14.506;2022-09-04T04:00:53;9.20;99.90
34873;DHT22;21084;51.098;14.506;2022-09-04T04:03:46;9.20;99.90
34873;DHT22;21084;51.098;14.506;2022-09-04T04:06:24;9.20;99.90
34873;DHT22;21084;51.098;14.506;2022-09-04T04:09:07;9.30;99.90
34873;DHT22;21084;51.098;14.506;2022-09-04T04:14:51;9.20;99.90
34873;DHT22;21084;51.098;14.506;2022-09-04T04:17:54;9.20;99.90
34873;DHT22;21084;51.098;14.506;2022-09-04T04:20:34;9.10;99.90
34873;DHT22;21084;51.098;14.506;2022-09-04T04:23:23;9.10;99.90
34873;DHT22;21084;51.098;14.506;2022-09-04T04:26:07;9.10;99.90
34873;DHT22;21084;51.098;14.506;2022-09-04T04:29:04;9.10;99.90
34873;DHT22;21084;51.098;14.506;2022-09-04T04:31:51;9.10;99.90
34873;DHT22;21084;51.098;14.506;2022-09-04T04:34:45;9.10;99.90
34873;DHT22;21084;51.098;14.506;2022-09-04T04:37:18;9.10;99.90
34873;DHT22;21084;51.098;14.506;2022-09-04T04:39:57;9.10;99.90
34873;DHT22;21084;51.098;14.506;2022-09-04T04:42:34;9.10;99.90
34873;DHT22;21084;51.098;14.506;2022-09-04T04:45:16;9.10;99.90
34873;DHT22;21084;51.098;14.506;2022-09-04T04:48:34;9.20;99.90
34873;DHT22;21084;51.098;14.506;2022-09-04T04:51:15;9.30;99.90
34873;DHT22;21084;51.098;14.506;2022-09-04T04:53:53;9.30;99.90
34873;DHT22;21084;51.098;14.506;2022-09-04T04:56:30;9.40;99.90
34873;DHT22;21084;51.098;14.506;2022-09-04T04:59:08;9.50;99.90
34873;DHT22;21084;51.098;14.506;2022-09-04T05:01:51;9.60;99.90
34873;DHT22;21084;51.098;14.506;2022-09-04T05:04:28;9.70;99.90
34873;DHT22;21084;51.098;14.506;2022-09-04T05:07:02;9.90;99.90
34873;DHT22;21084;51.098;14.506;2022-09-04T05:09:36;10.00;99.90
34873;DHT22;21084;51.098;14.506;2022-09-04T05:12:16;10.20;99.90
34873;DHT22;21084;51.098;14.506;2022-09-04T05:14:50;10.30;99.90
34873;DHT22;21084;51.098;14.506;2022-09-04T05:17:29;10.50;99.90
34873;DHT22;21084;51.098;14.506;2022-09-04T05:20:19;10.60;99.90
34873;DHT22;21084;51.098;14.506;2022-09-04T05:22:59;10.80;99.90
34873;DHT22;21084;51.098;14.506;2022-09-04T05:25:35;10.90;99.90
34873;DHT22;21084;51.098;14.506;2022-09-04T05:28:18;11.00;99.90
34873;DHT22;21084;51.098;14.506;2022-09-04T05:30:54;11.20;99.90
34873;DHT22;21084;51.098;14.506;2022-09-04T05:33:32;11.30;99.90
34873;DHT22;21084;51.098;14.506;2022-09-04T05:36:08;11.40;99.90
34873;DHT22;21084;51.098;14.506;2022-09-04T05:38:45;11.60;99.90
34873;DHT22;21084;51.098;14.506;2022-09-04T05:41:32;11.70;99.90
34873;DHT22;21084;51.098;14.506;2022-09-04T05:44:17;11.90;99.90
34873;DHT22;21084;51.098;14.506;2022-09-04T05:47:06;12.10;99.90
34873;DHT22;21084;51.098;14.506;2022-09-04T05:49:55;12.30;99.90
34873;DHT22;21084;51.098;14.506;2022-09-04T05:55:41;12.70;99.90
34873;DHT22;21084;51.098;14.506;2022-09-04T05:58:37;12.90;99.90
34873;DHT22;21084;51.098;14.506;2022-09-04T06:01:19;13.10;99.90
34873;DHT22;21084;51.098;14.506;2022-09-04T06:04:12;13.20;99.90
34873;DHT22;21084;51.098;14.506;2022-09-04T06:06:47;13.50;99.90
34873;DHT22;21084;51.098;14.506;2022-09-04T06:09:27;13.70;99.90
34873;DHT22;21084;51.098;14.506;2022-09-04T06:12:14;13.80;99.90
34873;DHT22;21084;51.098;14.506;2022-09-04T06:15:11;13.80;99.90
34873;DHT22;21084;51.098;14.506;2022-09-04T06:17:59;14.10;99.90
34873;DHT22;21084;51.098;14.506;2022-09-04T06:20:37;14.40;99.90
34873;DHT22;21084;51.098;14.506;2022-09-04T06:23:45;14.80;99.90
34873;DHT22;21084;51.098;14.506;2022-09-04T06:26:23;15.10;99.90
34873;DHT22;21084;51.098;14.506;2022-09-04T06:29:03;15.30;99.90
34873;DHT22;21084;51.098;14.506;2022-09-04T06:31:53;15.60;99.90
34873;DHT22;21084;51.098;14.506;2022-09-04T06:34:37;16.00;99.90
34873;DHT22;21084;51.098;14.506;2022-09-04T06:37:14;16.30;99.90
34873;DHT22;21084;51.098;14.506;2022-09-04T06:39:53;16.40;99.90
34873;DHT22;21084;51.098;14.506;2022-09-04T06:42:43;16.50;99.90
34873;DHT22;21084;51.098;14.506;2022-09-04T06:45:20;16.70;99.90
34873;DHT22;21084;51.098;14.506;2022-09-04T06:48:01;16.90;99.90
34873;DHT22;21084;51.098;14.506;2022-09-04T06:50:39;17.00;99.90
34873;DHT22;21084;51.098;14.506;2022-09-04T06:53:17;17.00;99.90
34873;DHT22;21084;51.098;14.506;2022-09-04T06:55:56;17.50;99.90
34873;DHT22;21084;51.098;14.506;2022-09-04T07:01:44;18.50;99.90
34873;DHT22;21084;51.098;14.506;2022-09-04T07:04:29;18.40;99.90
34873;DHT22;21084;51.098;14.506;2022-09-04T07:07:09;18.50;99.90
34873;DHT22;21084;51.098;14.506;2022-09-04T07:09:42;18.90;99.90
34873;DHT22;21084;51.098;14.506;2022-09-04T07:12:29;19.30;99.90
34873;DHT22;21084;51.098;14.506;2022-09-04T07:15:23;19.50;99.90
34873;DHT22;21084;51.098;14.506;2022-09-04T07:18:01;20.00;99.90
34873;DHT22;21084;51.098;14.506;2022-09-04T07:20:36;20.40;99.90
34873;DHT22;21084;51.098;14.506;2022-09-04T07:23:17;20.20;99.90
34873;DHT22;21084;51.098;14.506;2022-09-04T07:25:59;20.50;99.90
34873;DHT22;21084;51.098;14.506;2022-09-04T07:28:40;21.00;99.90
34873;DHT22;21084;51.098;14.506;2022-09-04T07:31:14;21.40;99.90
34873;DHT22;21084;51.098;14.506;2022-09-04T07:33:51;21.30;99.90
34873;DHT22;21084;51.098;14.506;2022-09-04T07:36:29;21.70;99.90
34873;DHT22;21084;51.098;14.506;2022-09-04T07:39:06;22.00;99.90
34873;DHT22;21084;51.098;14.506;2022-09-04T07:41:45;22.20;99.90
34873;DHT22;21084;51.098;14.506;2022-09-04T07:44:18;22.20;99.90
34873;DHT22;21084;51.098;14.506;2022-09-04T07:46:56;22.20;99.90
34873;DHT22;21084;51.098;14.506;2022-09-04T07:49:31;22.60;99.90
34873;DHT22;21084;51.098;14.506;2022-09-04T07:52:07;23.30;99.90
34873;DHT22;21084;51.098;14.506;2022-09-04T07:54:59;23.60;99.90
34873;DHT22;21084;51.098;14.506;2022-09-04T08:00:42;23.50;99.90
34873;DHT22;21084;51.098;14.506;2022-09-04T08:03:28;23.80;99.90
34873;DHT22;21084;51.098;14.506;2022-09-04T08:06:04;23.70;99.90
34873;DHT22;21084;51.098;14.506;2022-09-04T08:08:55;24.20;99.90
34873;DHT22;21084;51.098;14.506;2022-09-04T08:11:44;24.80;99.90
34873;DHT22;21084;51.098;14.506;2022-09-04T08:14:25;25.10;99.90
34873;DHT22;21084;51.098;14.506;2022-09-04T08:16:59;25.50;99.90
34873;DHT22;21084;51.098;14.506;2022-09-04T08:19:40;25.40;99.90
34873;DHT22;21084;51.098;14.506;2022-09-04T08:22:14;25.80;99.90
34873;DHT22;21084;51.098;14.506;2022-09-04T08:27:53;26.50;99.90
34873;DHT22;21084;51.098;14.506;2022-09-04T08:30:28;26.30;99.90
34873;DHT22;21084;51.098;14.506;2022-09-04T08:33:22;25.90;99.90
34873;DHT22;21084;51.098;14.506;2022-09-04T08:35:59;25.10;99.90
34873;DHT22;21084;51.098;14.506;2022-09-04T08:38:44;24.70;99.90
34873;DHT22;21084;51.098;14.506;2022-09-04T08:47:44;26.20;99.90
34873;DHT22;21084;51.098;14.506;2022-09-04T08:53:56;25.60;99.90
34873;DHT22;21084;51.098;14.506;2022-09-04T08:56:34;26.90;99.90
34873;DHT22;21084;51.098;14.506;2022-09-04T08:59:38;27.60;99.20
34873;DHT22;21084;51.098;14.506;2022-09-04T09:02:42;27.80;95.80
34873;DHT22;21084;51.098;14.506;2022-09-04T09:06:03;27.90;94.30
34873;DHT22;21084;51.098;14.506;2022-09-04T09:15:24;27.00;95.80
34873;DHT22;21084;51.098;14.506;2022-09-04T09:18:15;27.50;94.10
34873;DHT22;21084;51.098;14.506;2022-09-04T09:20:55;27.60;92.90
34873;DHT22;21084;51.098;14.506;2022-09-04T09:23:37;27.50;93.10
34873;DHT22;21084;51.098;14.506;2022-09-04T09:26:23;28.30;92.80
34873;DHT22;21084;51.098;14.506;2022-09-04T09:38:44;29.00;89.00
34873;DHT22;21084;51.098;14.506;2022-09-04T09:41:42;29.10;88.30
34873;DHT22;21084;51.098;14.506;2022-09-04T09:44:55;29.80;86.20
34873;DHT22;21084;51.098;14.506;2022-09-04T09:47:44;30.30;84.10
34873;DHT22;21084;51.098;14.506;2022-09-04T09:56:45;30.20;82.30
34873;DHT22;21084;51.098;14.506;2022-09-04T10:09:13;31.00;77.00
34873;DHT22;21084;51.098;14.506;2022-09-04T10:12:27;31.00;77.50
34873;DHT22;21084;51.098;14.506;2022-09-04T10:15:19;30.10;75.70
34873;DHT22;21084;51.098;14.506;2022-09-04T10:24:51;30.00;76.50
34873;DHT22;21084;51.098;14.506;2022-09-04T10:30:29;30.80;75.40
34873;DHT22;21084;51.098;14.506;2022-09-04T10:33:25;30.60;73.50
34873;DHT22;21084;51.098;14.506;2022-09-04T10:36:03;31.50;70.90
34873;DHT22;21084;51.098;14.506;2022-09-04T10:38:39;31.70;67.40
34873;DHT22;21084;51.098;14.506;2022-09-04T10:41:50;31.10;69.80
34873;DHT22;21084;51.098;14.506;2022-09-04T10:47:43;30.40;68.00
34873;DHT22;21084;51.098;14.506;2022-09-04T10:50:25;29.80;69.90
34873;DHT22;21084;51.098;14.506;2022-09-04T10:56:11;29.70;70.50
34873;DHT22;21084;51.098;14.506;2022-09-04T11:02:16;30.00;70.20
34873;DHT22;21084;51.098;14.506;2022-09-04T11:05:12;29.30;71.60
34873;DHT22;21084;51.098;14.506;2022-09-04T11:10:52;30.20;69.30
34873;DHT22;21084;51.098;14.506;2022-09-04T11:13:45;31.00;70.50
34873;DHT22;21084;51.098;14.506;2022-09-04T11:19:59;31.20;69.30
34873;DHT22;21084;51.098;14.506;2022-09-04T11:35:15;30.10;69.40
34873;DHT22;21084;51.098;14.506;2022-09-04T11:37:58;30.70;66.80
34873;DHT22;21084;51.098;14.506;2022-09-04T11:44:01;32.10;67.50
34873;DHT22;21084;51.098;14.506;2022-09-04T11:47:07;32.20;67.20
34873;DHT22;21084;51.098;14.506;2022-09-04T11:49:56;32.00;66.00
34873;DHT22;21084;51.098;14.506;2022-09-04T11:52:34;31.20;64.00
34873;DHT22;21084;51.098;14.506;2022-09-04T11:55:36;31.60;65.20
34873;DHT22;21084;51.098;14.506;2022-09-04T11:58:35;31.60;64.30
34873;DHT22;21084;51.098;14.506;2022-09-04T12:01:27;32.00;65.10
34873;DHT22;21084;51.098;14.506;2022-09-04T12:04:17;31.40;65.60
34873;DHT22;21084;51.098;14.506;2022-09-04T12:07:02;31.90;64.00
34873;DHT22;21084;51.098;14.506;2022-09-04T12:09:59;31.70;63.30
34873;DHT22;21084;51.098;14.506;2022-09-04T12:12:52;32.10;64.80
34873;DHT22;21084;51.098;14.506;2022-09-04T12:16:01;32.70;64.00
34873;DHT22;21084;51.098;14.506;2022-09-04T12:25:55;33.50;61.00
34873;DHT22;21084;51.098;14.506;2022-09-04T12:28:57;32.80;61.70
34873;DHT22;21084;51.098;14.506;2022-09-04T12:31:44;33.10;60.80
34873;DHT22;21084;51.098;14.506;2022-09-04T12:34:48;33.30;61.60
34873;DHT22;21084;51.098;14.506;2022-09-04T12:37:34;33.70;59.60
34873;DHT22;21084;51.098;14.506;2022-09-04T12:40:31;34.20;59.90
34873;DHT22;21084;51.098;14.506;2022-09-04T12:43:18;34.50;57.90
34873;DHT22;21084;51.098;14.506;2022-09-04T12:46:00;34.30;58.00
34873;DHT22;21084;51.098;14.506;2022-09-04T12:48:36;34.00;58.70
34873;DHT22;21084;51.098;14.506;2022-09-04T12:51:11;33.50;59.00
34873;DHT22;21084;51.098;14.506;2022-09-04T12:54:07;33.70;58.50
34873;DHT22;21084;51.098;14.506;2022-09-04T12:56:44;33.80;59.20
34873;DHT22;21084;51.098;14.506;2022-09-04T12:59:31;33.20;61.50
34873;DHT22;21084;51.098;14.506;2022-09-04T13:02:09;33.00;59.00
34873;DHT22;21084;51.098;14.506;2022-09-04T13:04:49;33.70;59.00
34873;DHT22;21084;51.098;14.506;2022-09-04T13:07:37;33.60;58.50
34873;DHT22;21084;51.098;14.506;2022-09-04T13:10:20;33.50;58.80
34873;DHT22;21084;51.098;14.506;2022-09-04T13:13:03;33.10;59.40
34873;DHT22;21084;51.098;14.506;2022-09-04T13:15:40;33.40;59.00
34873;DHT22;21084;51.098;14.506;2022-09-04T13:18:23;32.50;59.10
34873;DHT22;21084;51.098;14.506;2022-09-04T13:20:58;32.90;59.70
34873;DHT22;21084;51.098;14.506;2022-09-04T13:23:46;33.10;58.80
34873;DHT22;21084;51.098;14.506;2022-09-04T13:26:34;33.10;58.20
34873;DHT22;21084;51.098;14.506;2022-09-04T13:29:14;31.90;59.60
34873;DHT22;21084;51.098;14.506;2022-09-04T13:31:53;32.60;59.70
34873;DHT22;21084;51.098;14.506;2022-09-04T13:34:34;33.10;59.60
34873;DHT22;21084;51.098;14.506;2022-09-04T13:37:12;33.10;58.90
34873;DHT22;21084;51.098;14.506;2022-09-04T13:40:04;33.10;57.80
34873;DHT22;21084;51.098;14.506;2022-09-04T13:42:52;32.70;57.70
34873;DHT22;21084;51.098;14.506;2022-09-04T13:45:25;32.00;58.40
34873;DHT22;21084;51.098;14.506;2022-09-04T13:47:58;32.10;60.20
34873;DHT22;21084;51.098;14.506;2022-09-04T13:50:30;32.00;60.90
34873;DHT22;21084;51.098;14.506;2022-09-04T13:53:07;32.30;59.40
34873;DHT22;21084;51.098;14.506;2022-09-04T13:55:44;32.50;59.50
34873;DHT22;21084;51.098;14.506;2022-09-04T13:58:17;32.60;59.30
34873;DHT22;21084;51.098;14.506;2022-09-04T14:00:50;32.60;59.10
34873;DHT22;21084;51.098;14.506;2022-09-04T14:03:29;32.10;57.20
34873;DHT22;21084;51.098;14.506;2022-09-04T14:06:01;31.60;58.80
34873;DHT22;21084;51.098;14.506;2022-09-04T14:08:31;31.90;58.60
34873;DHT22;21084;51.098;14.506;2022-09-04T14:11:22;31.20;58.30
34873;DHT22;21084;51.098;14.506;2022-09-04T14:14:14;31.00;59.00
34873;DHT22;21084;51.098;14.506;2022-09-04T14:16:48;30.90;58.50
34873;DHT22;21084;51.098;14.506;2022-09-04T14:19:34;31.20;60.20
34873;DHT22;21084;51.098;14.506;2022-09-04T14:22:28;31.40;58.60
34873;DHT22;21084;51.098;14.506;2022-09-04T14:25:25;31.80;58.60
34873;DHT22;21084;51.098;14.506;2022-09-04T14:27:59;32.10;58.10
34873;DHT22;21084;51.098;14.506;2022-09-04T14:30:34;31.90;58.20
34873;DHT22;21084;51.098;14.506;2022-09-04T14:33:18;31.80;56.90
34873;DHT22;21084;51.098;14.506;2022-09-04T14:36:04;30.90;57.70
34873;DHT22;21084;51.098;14.506;2022-09-04T14:38:59;30.60;60.20
34873;DHT22;21084;51.098;14.506;2022-09-04T14:41:43;30.80;59.60
34873;DHT22;21084;51.098;14.506;2022-09-04T14:44:31;30.90;59.00
34873;DHT22;21084;51.098;14.506;2022-09-04T14:47:09;30.50;59.60
34873;DHT22;21084;51.098;14.506;2022-09-04T14:49:43;30.90;59.70
34873;DHT22;21084;51.098;14.506;2022-09-04T14:52:15;30.30;59.60
34873;DHT22;21084;51.098;14.506;2022-09-04T14:54:46;30.50;60.10
34873;DHT22;21084;51.098;14.506;2022-09-04T14:57:24;30.10;59.20
34873;DHT22;21084;51.098;14.506;2022-09-04T15:00:01;30.20;60.20
34873;DHT22;21084;51.098;14.506;2022-09-04T15:02:34;30.20;59.20
34873;DHT22;21084;51.098;14.506;2022-09-04T15:05:13;29.80;60.00
34873;DHT22;21084;51.098;14.506;2022-09-04T15:07:55;29.90;61.60
34873;DHT22;21084;51.098;14.506;2022-09-04T15:10:30;29.60;60.30
34873;DHT22;21084;51.098;14.506;2022-09-04T15:16:15;29.30;61.10
34873;DHT22;21084;51.098;14.506;2022-09-04T15:18:53;29.30;61.50
34873;DHT22;21084;51.098;14.506;2022-09-04T15:21:29;28.80;61.70
34873;DHT22;21084;51.098;14.506;2022-09-04T15:24:08;29.10;62.40
34873;DHT22;21084;51.098;14.506;2022-09-04T15:26:41;28.90;61.00
34873;DHT22;21084;51.098;14.506;2022-09-04T15:29:17;28.60;61.80
34873;DHT22;21084;51.098;14.506;2022-09-04T15:31:57;28.50;62.60
34873;DHT22;21084;51.098;14.506;2022-09-04T15:34:27;28.50;64.00
34873;DHT22;21084;51.098;14.506;2022-09-04T15:37:10;28.10;63.60
34873;DHT22;21084;51.098;14.506;2022-09-04T15:39:47;27.80;65.10
34873;DHT22;21084;51.098;14.506;2022-09-04T15:42:39;27.60;64.70
34873;DHT22;21084;51.098;14.506;2022-09-04T15:45:18;27.60;65.40
34873;DHT22;21084;51.098;14.506;2022-09-04T15:48:01;27.50;65.00
34873;DHT22;21084;51.098;14.506;2022-09-04T15:50:32;27.60;66.30
34873;DHT22;21084;51.098;14.506;2022-09-04T15:53:13;27.20;66.20
34873;DHT22;21084;51.098;14.506;2022-09-04T15:56:05;26.50;67.30
34873;DHT22;21084;51.098;14.506;2022-09-04T15:58:43;26.70;68.30
34873;DHT22;21084;51.098;14.506;2022-09-04T16:01:14;26.70;68.90
34873;DHT22;21084;51.098;14.506;2022-09-04T16:03:52;26.70;68.50
34873;DHT22;21084;51.098;14.506;2022-09-04T16:06:25;26.60;68.60
34873;DHT22;21084;51.098;14.506;2022-09-04T16:09:00;26.30;68.70
34873;DHT22;21084;51.098;14.506;2022-09-04T16:11:33;26.20;69.40
34873;DHT22;21084;51.098;14.506;2022-09-04T16:14:05;25.90;69.00
34873;DHT22;21084;51.098;14.506;2022-09-04T16:16:40;25.50;69.60
34873;DHT22;21084;51.098;14.506;2022-09-04T16:19:18;25.10;71.10
34873;DHT22;21084;51.098;14.506;2022-09-04T16:21:56;24.40;72.00
34873;DHT22;21084;51.098;14.506;2022-09-04T16:24:33;24.40;73.80
34873;DHT22;21084;51.098;14.506;2022-09-04T16:27:05;24.20;73.30
34873;DHT22;21084;51.098;14.506;2022-09-04T16:29:36;23.90;74.60
34873;DHT22;21084;51.098;14.506;2022-09-04T16:32:08;23.90;75.20
34873;DHT22;21084;51.098;14.506;2022-09-04T16:34:44;23.90;76.30
34873;DHT22;21084;51.098;14.506;2022-09-04T16:37:16;23.80;75.30
34873;DHT22;21084;51.098;14.506;2022-09-04T16:39:56;23.60;75.60
34873;DHT22;21084;51.098;14.506;2022-09-04T16:42:31;23.40;76.60
34873;DHT22;21084;51.098;14.506;2022-09-04T16:45:08;23.30;77.40
34873;DHT22;21084;51.098;14.506;2022-09-04T16:47:44;23.10;78.40
34873;DHT22;21084;51.098;14.506;2022-09-04T16:50:19;23.00;79.80
34873;DHT22;21084;51.098;14.506;2022-09-04T16:52:59;23.00;79.40
34873;DHT22;21084;51.098;14.506;2022-09-04T16:55:46;23.00;79.90
34873;DHT22;21084;51.098;14.506;2022-09-04T16:58:27;22.80;80.90
34873;DHT22;21084;51.098;14.506;2022-09-04T17:01:10;22.70;81.30
34873;DHT22;21084;51.098;14.506;2022-09-04T17:06:46;22.40;83.00
34873;DHT22;21084;51.098;14.506;2022-09-04T17:09:25;22.20;83.90
34873;DHT22;21084;51.098;14.506;2022-09-04T17:11:59;22.00;84.90
34873;DHT22;21084;51.098;14.506;2022-09-04T17:14:35;21.70;86.00
34873;DHT22;21084;51.098;14.506;2022-09-04T17:17:10;21.50;87.40
34873;DHT22;21084;51.098;14.506;2022-09-04T17:20:02;21.40;88.50
34873;DHT22;21084;51.098;14.506;2022-09-04T17:22:39;21.20;89.70
34873;DHT22;21084;51.098;14.506;2022-09-04T17:25:31;21.10;90.40
34873;DHT22;21084;51.098;14.506;2022-09-04T17:28:34;20.80;91.30
34873;DHT22;21084;51.098;14.506;2022-09-04T17:31:28;20.70;92.00
34873;DHT22;21084;51.098;14.506;2022-09-04T17:34:04;20.50;93.00
34873;DHT22;21084;51.098;14.506;2022-09-04T17:37:02;20.40;93.80
34873;DHT22;21084;51.098;14.506;2022-09-04T17:39:58;20.30;95.40
34873;DHT22;21084;51.098;14.506;2022-09-04T17:42:55;20.10;96.50
34873;DHT22;21084;51.098;14.506;2022-09-04T17:45:57;19.90;98.50
34873;DHT22;21084;51.098;14.506;2022-09-04T17:48:30;19.80;99.90
34873;DHT22;21084;51.098;14.506;2022-09-04T17:51:00;19.70;99.90
34873;DHT22;21084;51.098;14.506;2022-09-04T17:53:31;19.60;99.90
34873;DHT22;21084;51.098;14.506;2022-09-04T17:56:05;19.40;99.90
34873;DHT22;21084;51.098;14.506;2022-09-04T17:58:39;19.30;99.90
34873;DHT22;21084;51.098;14.506;2022-09-04T18:01:17;19.20;99.90
34873;DHT22;21084;51.098;14.506;2022-09-04T18:04:12;19.10;99.90
34873;DHT22;21084;51.098;14.506;2022-09-04T18:06:54;19.00;99.90
34873;DHT22;21084;51.098;14.506;2022-09-04T18:10:13;18.80;99.90
34873;DHT22;21084;51.098;14.506;2022-09-04T18:12:49;18.60;99.90
34873;DHT22;21084;51.098;14.506;2022-09-04T18:15:21;18.50;99.90
34873;DHT22;21084;51.098;14.506;2022-09-04T18:18:08;18.40;99.90
34873;DHT22;21084;51.098;14.506;2022-09-04T18:20:42;18.30;99.90
34873;DHT22;21084;51.098;14.506;2022-09-04T18:23:42;18.20;99.90
34873;DHT22;21084;51.098;14.506;2022-09-04T18:26:23;18.00;99.90
34873;DHT22;21084;51.098;14.506;2022-09-04T18:32:35;17.80;99.90
34873;DHT22;21084;51.098;14.506;2022-09-04T18:38:40;17.50;99.90
34873;DHT22;21084;51.098;14.506;2022-09-04T18:41:12;17.50;99.90
34873;DHT22;21084;51.098;14.506;2022-09-04T18:44:09;17.30;99.90
34873;DHT22;21084;51.098;14.506;2022-09-04T18:47:15;17.20;99.90
34873;DHT22;21084;51.098;14.506;2022-09-04T18:50:06;17.10;99.90
34873;DHT22;21084;51.098;14.506;2022-09-04T18:53:02;17.00;99.90
34873;DHT22;21084;51.098;14.506;2022-09-04T18:55:35;16.90;99.90
34873;DHT22;21084;51.098;14.506;2022-09-04T18:58:28;16.80;99.90
34873;DHT22;21084;51.098;14.506;2022-09-04T19:01:08;16.70;99.90
34873;DHT22;21084;51.098;14.506;2022-09-04T19:03:42;16.70;99.90
34873;DHT22;21084;51.098;14.506;2022-09-04T19:06:13;16.60;99.90